createdAt,value
2018-08-28T00:00:03.281Z,19.59
2018-08-28T00:00:07.589Z,19.6
2018-08-28T00:00:11.687Z,19.61
2018-08-28T00:00:15.777Z,19.6
2018-08-28T00:00:19.976Z,19.6
2018-08-28T00:00:24.182Z,19.6
2018-08-28T00:00:28.386Z,19.59
2018-08-28T00:00:32.722Z,19.59
2018-08-28T00:00:37.027Z,19.59
2018-08-28T00:00:41.331Z,19.59
2018-08-28T00:00:45.592Z,19.59
2018-08-28T00:00:49.789Z,19.58
2018-08-28T00:00:53.986Z,19.58
2018-08-28T00:00:58.322Z,19.58
2018-08-28T00:01:02.486Z,19.58
2018-08-28T00:01:06.586Z,19.57
2018-08-28T00:01:10.783Z,19.58
2018-08-28T00:01:14.893Z,19.58
2018-08-28T00:01:19.200Z,19.57
2018-08-28T00:01:23.558Z,19.58
2018-08-28T00:01:27.869Z,19.57
2018-08-28T00:01:31.972Z,19.58
2018-08-28T00:01:36.338Z,19.56
2018-08-28T00:01:40.641Z,19.57
2018-08-28T00:01:44.631Z,19.56
2018-08-28T00:01:48.733Z,19.56
2018-08-28T00:01:52.621Z,19.56
2018-08-28T00:01:56.818Z,19.56
2018-08-28T00:02:00.807Z,19.56
2018-08-28T00:02:04.794Z,19.56
2018-08-28T00:02:08.994Z,19.55
2018-08-28T00:02:13.364Z,19.56
2018-08-28T00:02:17.569Z,19.55
2018-08-28T00:02:21.657Z,19.55
2018-08-28T00:02:25.858Z,19.55
2018-08-28T00:02:30.159Z,19.55
2018-08-28T00:02:34.471Z,19.55
2018-08-28T00:02:38.674Z,19.54
2018-08-28T00:02:42.766Z,19.55
2018-08-28T00:02:46.868Z,19.55
2018-08-28T00:02:51.184Z,19.55
2018-08-28T00:02:55.389Z,19.55
2018-08-28T00:02:59.751Z,19.54
2018-08-28T00:03:03.852Z,19.53
2018-08-28T00:03:07.840Z,19.54
2018-08-28T00:03:11.717Z,19.53
2018-08-28T00:03:15.916Z,19.54
2018-08-28T00:03:20.017Z,19.53
2018-08-28T00:03:24.317Z,19.54
2018-08-28T00:03:28.410Z,19.54
2018-08-28T00:03:32.500Z,19.53
2018-08-28T00:03:36.699Z,19.53
2018-08-28T00:03:40.912Z,19.53
2018-08-28T00:03:44.904Z,19.53
2018-08-28T00:03:49.000Z,19.53
2018-08-28T00:03:53.203Z,19.53
2018-08-28T00:03:57.521Z,19.53
2018-08-28T00:04:01.725Z,19.53
2018-08-28T00:04:05.713Z,19.52
2018-08-28T00:04:09.812Z,19.52
2018-08-28T00:04:13.797Z,19.53
2018-08-28T00:04:17.996Z,19.52
2018-08-28T00:04:22.108Z,19.52
2018-08-28T00:04:26.315Z,19.52
2018-08-28T00:04:30.308Z,19.52
2018-08-28T00:04:34.496Z,19.52
2018-08-28T00:04:38.706Z,19.52
2018-08-28T00:04:43.031Z,19.51
2018-08-28T00:04:47.337Z,19.52
2018-08-28T00:04:51.461Z,19.51
2018-08-28T00:04:55.676Z,19.51
2018-08-28T00:04:59.874Z,19.51
2018-08-28T00:05:04.386Z,19.51
2018-08-28T00:05:08.579Z,19.5
2018-08-28T00:05:12.676Z,19.5
2018-08-28T00:05:16.875Z,19.51
2018-08-28T00:05:20.967Z,19.5
2018-08-28T00:05:25.166Z,19.5
2018-08-28T00:05:29.467Z,19.51
2018-08-28T00:05:33.771Z,19.5
2018-08-28T00:05:37.753Z,19.5
2018-08-28T00:05:42.056Z,19.51
2018-08-28T00:05:46.249Z,19.5
2018-08-28T00:05:50.569Z,19.5
2018-08-28T00:05:54.771Z,19.51
2018-08-28T00:05:58.973Z,19.5
2018-08-28T00:06:02.962Z,19.5
2018-08-28T00:06:07.159Z,19.5
2018-08-28T00:06:11.258Z,19.5
2018-08-28T00:06:15.561Z,19.49
2018-08-28T00:06:19.556Z,19.49
2018-08-28T00:06:23.858Z,19.49
2018-08-28T00:06:27.956Z,19.49
2018-08-28T00:06:32.164Z,19.49
2018-08-28T00:06:36.480Z,19.48
2018-08-28T00:06:40.581Z,19.48
2018-08-28T00:06:44.674Z,19.48
2018-08-28T00:06:48.874Z,19.48
2018-08-28T00:06:53.082Z,19.48
2018-08-28T00:06:57.070Z,19.48
2018-08-28T00:07:01.271Z,19.48
2018-08-28T00:07:05.372Z,19.47
2018-08-28T00:07:09.474Z,19.47
2018-08-28T00:07:13.680Z,19.48
2018-08-28T00:07:17.875Z,19.48
2018-08-28T00:07:22.192Z,19.47
2018-08-28T00:07:26.496Z,19.45
2018-08-28T00:07:30.698Z,19.47
2018-08-28T00:07:34.893Z,19.47
2018-08-28T00:07:39.092Z,19.46
2018-08-28T00:07:43.092Z,19.47
2018-08-28T00:07:47.289Z,19.46
2018-08-28T00:07:51.500Z,19.45
2018-08-28T00:07:55.812Z,19.47
2018-08-28T00:08:00.013Z,19.47
2018-08-28T00:08:04.267Z,19.45
2018-08-28T00:08:08.466Z,19.46
2018-08-28T00:08:12.659Z,19.45
2018-08-28T00:08:16.648Z,19.45
2018-08-28T00:08:20.849Z,19.45
2018-08-28T00:08:25.046Z,19.45
2018-08-28T00:08:29.352Z,19.45
2018-08-28T00:08:33.658Z,19.45
2018-08-28T00:08:37.963Z,19.45
2018-08-28T00:08:42.167Z,19.45
2018-08-28T00:08:46.370Z,19.45
2018-08-28T00:08:50.577Z,19.45
2018-08-28T00:08:54.894Z,19.45
2018-08-28T00:08:59.093Z,19.44
2018-08-28T00:09:03.443Z,19.45
2018-08-28T00:09:07.644Z,19.44
2018-08-28T00:09:11.956Z,19.43
2018-08-28T00:09:16.154Z,19.44
2018-08-28T00:09:20.361Z,19.44
2018-08-28T00:09:24.461Z,19.43
2018-08-28T00:09:28.657Z,19.43
2018-08-28T00:09:32.966Z,19.44
2018-08-28T00:09:37.278Z,19.44
2018-08-28T00:09:41.482Z,19.43
2018-08-28T00:09:45.467Z,19.43
2018-08-28T00:09:49.666Z,19.43
2018-08-28T00:09:53.758Z,19.43
2018-08-28T00:09:57.959Z,19.43
2018-08-28T00:10:02.162Z,19.43
2018-08-28T00:10:06.260Z,19.42
2018-08-28T00:10:10.360Z,19.42
2018-08-28T00:10:14.672Z,19.42
2018-08-28T00:10:18.662Z,19.42
2018-08-28T00:10:22.862Z,19.42
2018-08-28T00:10:27.167Z,19.43
2018-08-28T00:10:31.366Z,19.41
2018-08-28T00:10:35.680Z,19.42
2018-08-28T00:10:39.878Z,19.42
2018-08-28T00:10:44.195Z,19.42
2018-08-28T00:10:48.398Z,19.42
2018-08-28T00:10:52.704Z,19.42
2018-08-28T00:10:57.007Z,19.42
2018-08-28T00:11:00.998Z,19.41
2018-08-28T00:11:05.205Z,19.42
2018-08-28T00:11:09.507Z,19.41
2018-08-28T00:11:13.706Z,19.41
2018-08-28T00:11:18.046Z,19.41
2018-08-28T00:11:22.254Z,19.41
2018-08-28T00:11:26.459Z,19.41
2018-08-28T00:11:30.669Z,19.41
2018-08-28T00:11:34.976Z,19.4
2018-08-28T00:11:39.290Z,19.4
2018-08-28T00:11:43.391Z,19.41
2018-08-28T00:11:47.381Z,19.4
2018-08-28T00:11:51.577Z,19.4
2018-08-28T00:11:55.674Z,19.4
2018-08-28T00:11:59.979Z,19.4
2018-08-28T00:12:04.177Z,19.4
2018-08-28T00:12:08.280Z,19.4
2018-08-28T00:12:12.483Z,19.4
2018-08-28T00:12:16.597Z,19.4
2018-08-28T00:12:20.801Z,19.4
2018-08-28T00:12:25.004Z,19.4
2018-08-28T00:12:29.212Z,19.4
2018-08-28T00:12:33.521Z,19.39
2018-08-28T00:12:37.723Z,19.39
2018-08-28T00:12:41.966Z,19.39
2018-08-28T00:12:46.164Z,19.39
2018-08-28T00:12:50.469Z,19.38
2018-08-28T00:12:54.774Z,19.39
2018-08-28T00:12:58.973Z,19.39
2018-08-28T00:13:03.080Z,19.39
2018-08-28T00:13:07.388Z,19.39
2018-08-28T00:13:11.592Z,19.39
2018-08-28T00:13:15.788Z,19.39
2018-08-28T00:13:20.102Z,19.39
2018-08-28T00:13:24.301Z,19.39
2018-08-28T00:13:28.612Z,19.39
2018-08-28T00:13:32.918Z,19.38
2018-08-28T00:13:37.120Z,19.38
2018-08-28T00:13:41.107Z,19.38
2018-08-28T00:13:45.424Z,19.38
2018-08-28T00:13:49.640Z,19.38
2018-08-28T00:13:53.846Z,19.38
2018-08-28T00:13:58.147Z,19.37
2018-08-28T00:14:02.348Z,19.38
2018-08-28T00:14:06.601Z,19.38
2018-08-28T00:14:10.928Z,19.37
2018-08-28T00:14:15.017Z,19.37
2018-08-28T00:14:19.323Z,19.37
2018-08-28T00:14:23.514Z,19.37
2018-08-28T00:14:27.620Z,19.38
2018-08-28T00:14:31.819Z,19.38
2018-08-28T00:14:36.133Z,19.36
2018-08-28T00:14:40.437Z,19.36
2018-08-28T00:14:44.637Z,19.36
2018-08-28T00:14:48.945Z,19.36
2018-08-28T00:14:53.145Z,19.36
2018-08-28T00:14:57.349Z,19.36
2018-08-28T00:15:01.335Z,19.36
2018-08-28T00:15:05.541Z,19.36
2018-08-28T00:15:09.846Z,19.35
2018-08-28T00:15:14.066Z,19.36
2018-08-28T00:15:18.270Z,19.36
2018-08-28T00:15:22.590Z,19.35
2018-08-28T00:15:26.675Z,19.36
2018-08-28T00:15:30.873Z,19.35
2018-08-28T00:15:35.072Z,19.35
2018-08-28T00:15:39.373Z,19.35
2018-08-28T00:15:43.571Z,19.35
2018-08-28T00:15:47.898Z,19.34
2018-08-28T00:15:51.987Z,19.35
2018-08-28T00:15:56.284Z,19.35
2018-08-28T00:16:00.484Z,19.35
2018-08-28T00:16:04.683Z,19.35
2018-08-28T00:16:08.777Z,19.35
2018-08-28T00:16:12.979Z,19.35
2018-08-28T00:16:17.186Z,19.35
2018-08-28T00:16:21.286Z,19.36
2018-08-28T00:16:25.637Z,19.35
2018-08-28T00:16:29.834Z,19.35
2018-08-28T00:16:34.138Z,19.34
2018-08-28T00:16:38.235Z,19.35
2018-08-28T00:16:42.446Z,19.34
2018-08-28T00:16:46.756Z,19.34
2018-08-28T00:16:51.000Z,19.33
2018-08-28T00:16:55.356Z,19.34
2018-08-28T00:17:00.013Z,19.33
2018-08-28T00:17:04.344Z,19.34
2018-08-28T00:17:09.074Z,19.33
2018-08-28T00:17:14.115Z,19.33
2018-08-28T00:17:18.109Z,19.34
2018-08-28T00:17:22.432Z,19.33
2018-08-28T00:17:26.794Z,19.33
2018-08-28T00:17:31.102Z,19.33
2018-08-28T00:17:35.414Z,19.33
2018-08-28T00:17:39.618Z,19.33
2018-08-28T00:17:43.825Z,19.32
2018-08-28T00:17:48.127Z,19.33
2018-08-28T00:17:52.247Z,19.33
2018-08-28T00:17:56.236Z,19.33
2018-08-28T00:18:00.537Z,19.32
2018-08-28T00:18:04.630Z,19.32
2018-08-28T00:18:08.727Z,19.32
2018-08-28T00:18:12.824Z,19.32
2018-08-28T00:18:16.921Z,19.32
2018-08-28T00:18:21.122Z,19.32
2018-08-28T00:18:25.328Z,19.32
2018-08-28T00:18:29.636Z,19.31
2018-08-28T00:18:33.835Z,19.3
2018-08-28T00:18:38.145Z,19.31
2018-08-28T00:18:42.344Z,19.3
2018-08-28T00:18:46.545Z,19.3
2018-08-28T00:18:50.775Z,19.3
2018-08-28T00:18:54.979Z,19.3
2018-08-28T00:18:59.200Z,19.31
2018-08-28T00:19:03.303Z,19.3
2018-08-28T00:19:07.505Z,19.29
2018-08-28T00:19:11.604Z,19.3
2018-08-28T00:19:15.911Z,19.3
2018-08-28T00:19:20.121Z,19.29
2018-08-28T00:19:24.214Z,19.29
2018-08-28T00:19:28.418Z,19.29
2018-08-28T00:19:32.732Z,19.29
2018-08-28T00:19:37.045Z,19.28
2018-08-28T00:19:41.249Z,19.28
2018-08-28T00:19:45.577Z,19.29
2018-08-28T00:19:49.778Z,19.28
2018-08-28T00:19:53.978Z,19.28
2018-08-28T00:19:58.072Z,19.28
2018-08-28T00:20:02.170Z,19.28
2018-08-28T00:20:06.169Z,19.28
2018-08-28T00:20:10.478Z,19.27
2018-08-28T00:20:14.730Z,19.28
2018-08-28T00:20:18.929Z,19.28
2018-08-28T00:20:23.021Z,19.28
2018-08-28T00:20:27.113Z,19.28
2018-08-28T00:20:31.206Z,19.27
2018-08-28T00:20:35.403Z,19.27
2018-08-28T00:20:39.492Z,19.27
2018-08-28T00:20:43.690Z,19.27
2018-08-28T00:20:47.786Z,19.27
2018-08-28T00:20:51.985Z,19.27
2018-08-28T00:20:56.302Z,19.26
2018-08-28T00:21:00.610Z,19.26
2018-08-28T00:21:41.154Z,19.26
2018-08-28T00:21:45.147Z,19.25
2018-08-28T00:21:49.349Z,19.25
2018-08-28T00:21:53.336Z,19.25
2018-08-28T00:21:57.434Z,19.25
2018-08-28T00:22:01.743Z,19.25
2018-08-28T00:22:05.729Z,19.24
2018-08-28T00:22:09.942Z,19.23
2018-08-28T00:22:13.940Z,19.24
2018-08-28T00:22:18.147Z,19.24
2018-08-28T00:22:22.348Z,19.24
2018-08-28T00:22:26.549Z,19.24
2018-08-28T00:22:30.867Z,19.24
2018-08-28T00:22:35.176Z,19.23
2018-08-28T00:22:39.372Z,19.23
2018-08-28T00:22:43.575Z,19.22
2018-08-28T00:22:47.779Z,19.23
2018-08-28T00:22:52.093Z,19.22
2018-08-28T00:22:56.295Z,19.22
2018-08-28T00:23:00.496Z,19.22
2018-08-28T00:23:04.594Z,19.22
2018-08-28T00:23:08.692Z,19.21
2018-08-28T00:23:12.787Z,19.22
2018-08-28T00:23:16.880Z,19.21
2018-08-28T00:23:21.185Z,19.21
2018-08-28T00:23:25.492Z,19.2
2018-08-28T00:23:29.797Z,19.2
2018-08-28T00:23:33.996Z,19.21
2018-08-28T00:23:38.194Z,19.21
2018-08-28T00:23:42.284Z,19.2
2018-08-28T00:23:46.595Z,19.21
2018-08-28T00:23:50.903Z,19.2
2018-08-28T00:23:55.255Z,19.2
2018-08-28T00:23:59.261Z,19.2
2018-08-28T00:24:03.471Z,19.2
2018-08-28T00:24:07.809Z,19.2
2018-08-28T00:24:11.910Z,19.2
2018-08-28T00:24:16.262Z,19.19
2018-08-28T00:24:20.566Z,19.2
2018-08-28T00:24:24.870Z,19.19
2018-08-28T00:24:29.015Z,19.2
2018-08-28T00:24:33.110Z,19.19
2018-08-28T00:24:37.306Z,19.2
2018-08-28T00:24:41.304Z,19.19
2018-08-28T00:24:45.621Z,19.2
2018-08-28T00:24:49.823Z,19.19
2018-08-28T00:24:54.029Z,19.2
2018-08-28T00:24:58.225Z,19.19
2018-08-28T00:25:02.434Z,19.19
2018-08-28T00:25:06.651Z,19.19
2018-08-28T00:25:10.848Z,19.19
2018-08-28T00:25:15.052Z,19.19
2018-08-28T00:25:19.362Z,19.19
2018-08-28T00:25:23.562Z,19.19
2018-08-28T00:25:27.653Z,19.2
2018-08-28T00:25:31.858Z,19.19
2018-08-28T00:25:36.056Z,19.19
2018-08-28T00:25:40.152Z,19.19
2018-08-28T00:25:44.472Z,19.2
2018-08-28T00:25:48.788Z,19.19
2018-08-28T00:25:52.983Z,19.18
2018-08-28T00:25:57.082Z,19.19
2018-08-28T00:26:01.280Z,19.18
2018-08-28T00:26:05.370Z,19.19
2018-08-28T00:26:09.678Z,19.19
2018-08-28T00:26:13.875Z,19.18
2018-08-28T00:26:18.078Z,19.19
2018-08-28T00:26:22.281Z,19.19
2018-08-28T00:26:26.606Z,19.19
2018-08-28T00:26:30.702Z,19.19
2018-08-28T00:26:34.796Z,19.18
2018-08-28T00:26:38.995Z,19.18
2018-08-28T00:26:43.093Z,19.19
2018-08-28T00:26:47.080Z,19.19
2018-08-28T00:26:51.292Z,19.19
2018-08-28T00:26:55.491Z,19.18
2018-08-28T00:26:59.800Z,19.18
2018-08-28T00:27:03.790Z,19.17
2018-08-28T00:27:07.989Z,19.19
2018-08-28T00:27:12.189Z,19.18
2018-08-28T00:27:16.508Z,19.18
2018-08-28T00:27:20.604Z,19.18
2018-08-28T00:27:24.908Z,19.18
2018-08-28T00:27:29.005Z,19.18
2018-08-28T00:27:33.216Z,19.19
2018-08-28T00:27:37.530Z,19.18
2018-08-28T00:27:41.736Z,19.18
2018-08-28T00:27:45.936Z,19.18
2018-08-28T00:27:50.243Z,19.18
2018-08-28T00:27:54.454Z,19.18
2018-08-28T00:27:58.658Z,19.19
2018-08-28T00:28:02.871Z,19.18
2018-08-28T00:28:07.083Z,19.18
2018-08-28T00:28:11.181Z,19.19
2018-08-28T00:28:15.384Z,19.18
2018-08-28T00:28:19.703Z,19.18
2018-08-28T00:28:24.009Z,19.19
2018-08-28T00:28:28.319Z,19.18
2018-08-28T00:28:32.632Z,19.19
2018-08-28T00:28:36.843Z,19.18
2018-08-28T00:28:40.946Z,19.18
2018-08-28T00:28:45.263Z,19.19
2018-08-28T00:28:49.469Z,19.19
2018-08-28T00:28:53.558Z,19.19
2018-08-28T00:28:57.770Z,19.18
2018-08-28T00:29:01.865Z,19.19
2018-08-28T00:29:06.071Z,19.18
2018-08-28T00:29:10.165Z,19.18
2018-08-28T00:29:14.263Z,19.19
2018-08-28T00:29:18.463Z,19.18
2018-08-28T00:29:22.769Z,19.18
2018-08-28T00:29:26.966Z,19.18
2018-08-28T00:29:31.275Z,19.18
2018-08-28T00:29:35.370Z,19.17
2018-08-28T00:29:39.467Z,19.18
2018-08-28T00:29:43.786Z,19.17
2018-08-28T00:29:47.877Z,19.18
2018-08-28T00:29:52.179Z,19.18
2018-08-28T00:29:56.282Z,19.18
2018-08-28T00:30:00.485Z,19.18
2018-08-28T00:30:04.529Z,19.18
2018-08-28T00:30:08.627Z,19.19
2018-08-28T00:30:12.728Z,19.18
2018-08-28T00:30:16.927Z,19.18
2018-08-28T00:30:21.021Z,19.18
2018-08-28T00:30:25.111Z,19.18
2018-08-28T00:30:29.326Z,19.18
2018-08-28T00:30:33.645Z,19.18
2018-08-28T00:30:37.955Z,19.18
2018-08-28T00:30:42.281Z,19.19
2018-08-28T00:30:46.378Z,19.18
2018-08-28T00:30:50.590Z,19.19
2018-08-28T00:30:54.896Z,19.19
2018-08-28T00:30:59.205Z,19.18
2018-08-28T00:31:03.401Z,19.19
2018-08-28T00:31:07.610Z,19.19
2018-08-28T00:31:11.831Z,19.19
2018-08-28T00:31:16.026Z,19.2
2018-08-28T00:31:20.117Z,19.19
2018-08-28T00:31:24.314Z,19.18
2018-08-28T00:31:28.680Z,19.18
2018-08-28T00:31:32.775Z,19.19
2018-08-28T00:31:36.868Z,19.19
2018-08-28T00:31:41.068Z,19.19
2018-08-28T00:31:45.161Z,19.2
2018-08-28T00:31:49.363Z,19.19
2018-08-28T00:31:53.572Z,19.19
2018-08-28T00:31:57.767Z,19.19
2018-08-28T00:32:01.861Z,19.19
2018-08-28T00:32:06.220Z,19.2
2018-08-28T00:32:10.209Z,19.19
2018-08-28T00:32:14.299Z,19.2
2018-08-28T00:32:18.613Z,19.19
2018-08-28T00:32:22.920Z,19.18
2018-08-28T00:32:27.118Z,19.19
2018-08-28T00:32:31.323Z,19.2
2018-08-28T00:32:35.628Z,19.2
2018-08-28T00:32:39.831Z,19.2
2018-08-28T00:32:44.036Z,19.2
2018-08-28T00:32:48.231Z,19.19
2018-08-28T00:32:52.451Z,19.19
2018-08-28T00:32:56.652Z,19.2
2018-08-28T00:33:00.851Z,19.2
2018-08-28T00:33:05.168Z,19.2
2018-08-28T00:33:09.261Z,19.2
2018-08-28T00:33:13.566Z,19.2
2018-08-28T00:33:17.781Z,19.2
2018-08-28T00:33:22.081Z,19.2
2018-08-28T00:33:26.400Z,19.2
2018-08-28T00:33:30.600Z,19.2
2018-08-28T00:33:34.912Z,19.2
2018-08-28T00:33:39.220Z,19.21
2018-08-28T00:33:43.536Z,19.2
2018-08-28T00:33:47.735Z,19.21
2018-08-28T00:33:51.943Z,19.21
2018-08-28T00:33:56.252Z,19.21
2018-08-28T00:34:00.456Z,19.21
2018-08-28T00:34:04.673Z,19.21
2018-08-28T00:34:08.762Z,19.2
2018-08-28T00:34:12.968Z,19.21
2018-08-28T00:34:17.203Z,19.21
2018-08-28T00:34:21.095Z,19.2
2018-08-28T00:34:25.239Z,19.21
2018-08-28T00:34:29.446Z,19.21
2018-08-28T00:34:33.747Z,19.2
2018-08-28T00:34:38.063Z,19.21
2018-08-28T00:34:42.272Z,19.21
2018-08-28T00:34:46.473Z,19.21
2018-08-28T00:34:50.684Z,19.21
2018-08-28T00:34:54.777Z,19.22
2018-08-28T00:34:58.872Z,19.21
2018-08-28T00:35:02.863Z,19.21
2018-08-28T00:35:07.072Z,19.21
2018-08-28T00:35:11.376Z,19.21
2018-08-28T00:35:15.581Z,19.22
2018-08-28T00:35:19.891Z,19.21
2018-08-28T00:35:24.198Z,19.22
2018-08-28T00:35:28.405Z,19.21
2018-08-28T00:35:32.610Z,19.22
2018-08-28T00:35:36.699Z,19.22
2018-08-28T00:35:41.016Z,19.22
2018-08-28T00:35:45.219Z,19.22
2018-08-28T00:35:49.534Z,19.22
2018-08-28T00:35:53.735Z,19.21
2018-08-28T00:35:57.933Z,19.22
2018-08-28T00:36:02.132Z,19.22
2018-08-28T00:36:06.230Z,19.22
2018-08-28T00:36:10.427Z,19.22
2018-08-28T00:36:14.628Z,19.21
2018-08-28T00:36:18.928Z,19.22
2018-08-28T00:36:23.236Z,19.23
2018-08-28T00:36:27.538Z,19.23
2018-08-28T00:36:31.625Z,19.21
2018-08-28T00:36:35.928Z,19.22
2018-08-28T00:36:40.016Z,19.23
2018-08-28T00:36:44.318Z,19.22
2018-08-28T00:36:48.562Z,19.22
2018-08-28T00:36:52.658Z,19.23
2018-08-28T00:36:56.652Z,19.23
2018-08-28T00:37:00.963Z,19.22
2018-08-28T00:37:04.956Z,19.23
2018-08-28T00:37:09.161Z,19.23
2018-08-28T00:37:13.254Z,19.23
2018-08-28T00:37:17.244Z,19.24
2018-08-28T00:37:21.454Z,19.23
2018-08-28T00:37:25.544Z,19.23
2018-08-28T00:37:29.857Z,19.23
2018-08-28T00:37:34.160Z,19.22
2018-08-28T00:37:37.931Z,19.23
2018-08-28T00:37:42.027Z,19.23
2018-08-28T00:37:46.225Z,19.23
2018-08-28T00:37:50.316Z,19.24
2018-08-28T00:37:54.409Z,19.24
2018-08-28T00:37:58.714Z,19.23
2018-08-28T00:38:02.808Z,19.23
2018-08-28T00:38:06.900Z,19.23
2018-08-28T00:38:11.092Z,19.23
2018-08-28T00:38:15.463Z,19.23
2018-08-28T00:38:19.677Z,19.24
2018-08-28T00:38:23.983Z,19.24
2018-08-28T00:38:28.190Z,19.24
2018-08-28T00:38:32.396Z,19.24
2018-08-28T00:38:36.703Z,19.24
2018-08-28T00:38:40.904Z,19.24
2018-08-28T00:38:45.209Z,19.24
2018-08-28T00:38:49.514Z,19.24
2018-08-28T00:38:53.608Z,19.24
2018-08-28T00:38:57.923Z,19.24
2018-08-28T00:39:02.122Z,19.24
2018-08-28T00:39:06.327Z,19.24
2018-08-28T00:39:10.535Z,19.25
2018-08-28T00:39:14.838Z,19.24
2018-08-28T00:39:18.929Z,19.24
2018-08-28T00:39:23.141Z,19.24
2018-08-28T00:39:27.250Z,19.25
2018-08-28T00:39:31.455Z,19.25
2018-08-28T00:39:35.661Z,19.25
2018-08-28T00:39:39.976Z,19.25
2018-08-28T00:39:44.276Z,19.25
2018-08-28T00:39:48.365Z,19.25
2018-08-28T00:39:52.560Z,19.25
2018-08-28T00:39:56.755Z,19.26
2018-08-28T00:40:00.983Z,19.25
2018-08-28T00:40:05.231Z,19.25
2018-08-28T00:40:09.325Z,19.25
2018-08-28T00:40:13.543Z,19.25
2018-08-28T00:40:17.735Z,19.25
2018-08-28T00:40:21.826Z,19.25
2018-08-28T00:40:26.135Z,19.25
2018-08-28T00:40:30.440Z,19.25
2018-08-28T00:40:34.741Z,19.26
2018-08-28T00:40:38.834Z,19.26
2018-08-28T00:40:43.138Z,19.26
2018-08-28T00:40:47.444Z,19.26
2018-08-28T00:40:51.798Z,19.26
2018-08-28T00:40:55.885Z,19.26
2018-08-28T00:41:00.202Z,19.26
2018-08-28T00:41:04.303Z,19.26
2018-08-28T00:41:08.404Z,19.26
2018-08-28T00:41:12.762Z,19.26
2018-08-28T00:41:16.959Z,19.26
2018-08-28T00:41:21.260Z,19.27
2018-08-28T00:41:25.456Z,19.26
2018-08-28T00:41:29.656Z,19.27
2018-08-28T00:41:33.857Z,19.26
2018-08-28T00:41:37.853Z,19.27
2018-08-28T00:41:42.163Z,19.27
2018-08-28T00:41:46.466Z,19.27
2018-08-28T00:41:50.451Z,19.27
2018-08-28T00:41:54.544Z,19.26
2018-08-28T00:41:58.748Z,19.27
2018-08-28T00:42:02.975Z,19.27
2018-08-28T00:42:07.289Z,19.27
2018-08-28T00:42:11.277Z,19.27
2018-08-28T00:42:15.367Z,19.27
2018-08-28T00:42:19.683Z,19.26
2018-08-28T00:42:23.987Z,19.27
2018-08-28T00:42:28.189Z,19.27
2018-08-28T00:42:32.388Z,19.27
2018-08-28T00:42:36.689Z,19.28
2018-08-28T00:42:40.992Z,19.28
2018-08-28T00:42:45.097Z,19.27
2018-08-28T00:42:49.082Z,19.29
2018-08-28T00:42:53.403Z,19.27
2018-08-28T00:42:57.508Z,19.27
2018-08-28T00:43:01.714Z,19.27
2018-08-28T00:43:05.810Z,19.28
2018-08-28T00:43:10.018Z,19.28
2018-08-28T00:43:14.111Z,19.27
2018-08-28T00:43:18.205Z,19.28
2018-08-28T00:43:22.518Z,19.28
2018-08-28T00:43:26.721Z,19.29
2018-08-28T00:43:30.920Z,19.28
2018-08-28T00:43:35.026Z,19.28
2018-08-28T00:43:39.333Z,19.28
2018-08-28T00:43:43.434Z,19.28
2018-08-28T00:43:47.532Z,19.28
2018-08-28T00:43:51.845Z,19.29
2018-08-28T00:43:56.042Z,19.29
2018-08-28T00:44:00.037Z,19.28
2018-08-28T00:44:03.924Z,19.28
2018-08-28T00:44:08.145Z,19.29
2018-08-28T00:44:12.345Z,19.28
2018-08-28T00:44:16.442Z,19.29
2018-08-28T00:44:20.642Z,19.28
2018-08-28T00:44:24.854Z,19.28
2018-08-28T00:44:29.059Z,19.29
2018-08-28T00:44:33.373Z,19.28
2018-08-28T00:44:37.685Z,19.28
2018-08-28T00:44:41.999Z,19.28
2018-08-28T00:44:46.084Z,19.29
2018-08-28T00:44:50.287Z,19.29
2018-08-28T00:44:54.490Z,19.28
2018-08-28T00:44:58.485Z,19.28
2018-08-28T00:45:02.814Z,19.28
2018-08-28T00:45:07.013Z,19.28
2018-08-28T00:45:11.317Z,19.29
2018-08-28T00:45:15.524Z,19.28
2018-08-28T00:45:19.831Z,19.28
2018-08-28T00:45:23.818Z,19.28
2018-08-28T00:45:28.023Z,19.29
2018-08-28T00:45:32.333Z,19.28
2018-08-28T00:45:36.523Z,19.28
2018-08-28T00:45:40.826Z,19.29
2018-08-28T00:45:45.023Z,19.28
2018-08-28T00:45:49.281Z,19.28
2018-08-28T00:45:53.379Z,19.28
2018-08-28T00:45:57.470Z,19.28
2018-08-28T00:46:01.776Z,19.28
2018-08-28T00:46:05.997Z,19.28
2018-08-28T00:46:10.195Z,19.28
2018-08-28T00:46:14.292Z,19.29
2018-08-28T00:46:18.382Z,19.28
2018-08-28T00:46:22.481Z,19.29
2018-08-28T00:46:26.571Z,19.28
2018-08-28T00:46:30.878Z,19.27
2018-08-28T00:46:35.076Z,19.27
2018-08-28T00:46:39.383Z,19.28
2018-08-28T00:46:43.478Z,19.28
2018-08-28T00:46:47.796Z,19.26
2018-08-28T00:46:52.111Z,19.27
2018-08-28T00:46:56.418Z,19.27
2018-08-28T00:47:00.739Z,19.27
2018-08-28T00:47:04.834Z,19.27
2018-08-28T00:47:09.043Z,19.27
2018-08-28T00:47:13.143Z,19.26
2018-08-28T00:47:17.441Z,19.27
2018-08-28T00:47:21.746Z,19.26
2018-08-28T00:47:26.056Z,19.26
2018-08-28T00:47:30.369Z,19.26
2018-08-28T00:47:34.463Z,19.27
2018-08-28T00:47:38.769Z,19.26
2018-08-28T00:47:42.863Z,19.26
2018-08-28T00:47:47.166Z,19.26
2018-08-28T00:47:51.263Z,19.26
2018-08-28T00:47:55.566Z,19.26
2018-08-28T00:47:59.876Z,19.26
2018-08-28T00:48:04.092Z,19.25
2018-08-28T00:48:08.191Z,19.26
2018-08-28T00:48:12.296Z,19.26
2018-08-28T00:48:16.500Z,19.26
2018-08-28T00:48:20.808Z,19.25
2018-08-28T00:48:25.017Z,19.25
2018-08-28T00:48:29.334Z,19.25
2018-08-28T00:48:33.548Z,19.25
2018-08-28T00:48:37.897Z,19.25
2018-08-28T00:48:42.204Z,19.25
2018-08-28T00:48:46.403Z,19.25
2018-08-28T00:48:50.607Z,19.25
2018-08-28T00:48:54.805Z,19.25
2018-08-28T00:48:58.788Z,19.25
2018-08-28T00:49:02.988Z,19.25
2018-08-28T00:49:07.302Z,19.24
2018-08-28T00:49:11.609Z,19.25
2018-08-28T00:49:15.817Z,19.24
2018-08-28T00:49:20.123Z,19.24
2018-08-28T00:49:24.361Z,19.24
2018-08-28T00:49:28.348Z,19.24
2018-08-28T00:49:32.560Z,19.24
2018-08-28T00:49:36.772Z,19.23
2018-08-28T00:49:40.968Z,19.24
2018-08-28T00:49:45.270Z,19.24
2018-08-28T00:49:49.364Z,19.24
2018-08-28T00:49:53.459Z,19.23
2018-08-28T00:49:57.551Z,19.24
2018-08-28T00:50:01.872Z,19.24
2018-08-28T00:50:05.967Z,19.23
2018-08-28T00:50:10.175Z,19.23
2018-08-28T00:50:14.269Z,19.23
2018-08-28T00:50:18.579Z,19.22
2018-08-28T00:50:22.781Z,19.23
2018-08-28T00:50:26.976Z,19.23
2018-08-28T00:50:31.276Z,19.23
2018-08-28T00:50:35.600Z,19.23
2018-08-28T00:50:39.902Z,19.23
2018-08-28T00:50:43.993Z,19.23
2018-08-28T00:50:48.305Z,19.23
2018-08-28T00:50:52.612Z,19.22
2018-08-28T00:50:56.806Z,19.23
2018-08-28T00:51:01.003Z,19.23
2018-08-28T00:51:05.099Z,19.23
2018-08-28T00:51:09.345Z,19.22
2018-08-28T00:51:13.678Z,19.22
2018-08-28T00:51:17.777Z,19.22
2018-08-28T00:51:22.134Z,19.22
2018-08-28T00:51:26.444Z,19.22
2018-08-28T00:51:30.439Z,19.22
2018-08-28T00:51:34.794Z,19.21
2018-08-28T00:51:38.895Z,19.21
2018-08-28T00:51:43.101Z,19.21
2018-08-28T00:51:47.104Z,19.21
2018-08-28T00:51:51.408Z,19.21
2018-08-28T00:51:55.723Z,19.21
2018-08-28T00:51:59.930Z,19.2
2018-08-28T00:52:04.126Z,19.21
2018-08-28T00:52:08.433Z,19.2
2018-08-28T00:52:12.784Z,19.2
2018-08-28T00:52:17.132Z,19.21
2018-08-28T00:52:21.494Z,19.2
2018-08-28T00:52:26.321Z,19.21
2018-08-28T00:52:31.501Z,19.21
2018-08-28T00:52:35.792Z,19.2
2018-08-28T00:52:39.887Z,19.2
2018-08-28T00:52:44.193Z,19.2
2018-08-28T00:52:48.394Z,19.2
2018-08-28T00:52:52.600Z,19.2
2018-08-28T00:52:56.693Z,19.19
2018-08-28T00:53:00.999Z,19.19
2018-08-28T00:53:05.310Z,19.2
2018-08-28T00:53:09.516Z,19.2
2018-08-28T00:53:13.716Z,19.19
2018-08-28T00:53:17.815Z,19.2
2018-08-28T00:53:21.908Z,19.2
2018-08-28T00:53:26.003Z,19.19
2018-08-28T00:53:30.204Z,19.19
2018-08-28T00:53:34.411Z,19.19
2018-08-28T00:53:38.620Z,19.18
2018-08-28T00:53:42.715Z,19.19
2018-08-28T00:53:47.035Z,19.19
2018-08-28T00:53:51.354Z,19.2
2018-08-28T00:53:55.664Z,19.18
2018-08-28T00:53:59.863Z,19.19
2018-08-28T00:54:04.161Z,19.18
2018-08-28T00:54:08.473Z,19.18
2018-08-28T00:54:12.672Z,19.18
2018-08-28T00:54:16.876Z,19.18
2018-08-28T00:54:20.974Z,19.18
2018-08-28T00:54:25.283Z,19.18
2018-08-28T00:54:29.373Z,19.18
2018-08-28T00:54:33.572Z,19.18
2018-08-28T00:54:37.883Z,19.18
2018-08-28T00:54:41.997Z,19.19
2018-08-28T00:54:46.198Z,19.19
2018-08-28T00:54:50.402Z,19.18
2018-08-28T00:54:54.391Z,19.18
2018-08-28T00:54:58.480Z,19.19